Decoded Metar for LFRD (DINARD in FRANCE) (IATA:DNR) | Meteo·Mobile Aviation Weather
aviador You're here:

LFRD Decoded Metar

DINARD in FRANCE
Report Time2019-07-21 17:00:00
UTC Time2019-07-21 17:13:26
Flight Rules vfr VFR
Wind020° at 06 kt
W.Decomp.*RWY 35: 5.1 kt HW 3.2 kt RCW
RWY 30: 0.8 kt HW 5.9 kt RCW
Visibility9999 m
Phenomena:N/A
Clouds:N/A
Expected CloudBase > 3,600 ft AGL from Temp-Dew spread
CeilingNone
Temp24°C (ISA +9)
Dew Point15°C (57% RH)
AAT23.4°C
QNH1022 hPa
Density Alt1,211 ft
Elevation194 ft
Report Wrong Elevation
Raw Report
LFRD 211700Z AUTO 02006KT CAVOK 24/15 Q1022 NOSIG=

Extra information for LFRD:More info

Metar Taf Metar & Taf Last 4 Metars F.Rules Stats Wind Profile Meteogram Temp Stats Airport Information Weather charts Add Link Nearby VenuesMetar ALERT Operation Metar Decoded Social comments